Russellville, Missouri
Current Conditions -  °F | °C
As of 6:31 AM on Thursday 18 Dec 2014 (Local Time) from KJEF Reporting Station
Light Snow Light Snow  
Wind Chill: 23°   Ceiling: 3800
Heat Index: 30°   Visibility: 3mi
Dew Point: 28°   Wind: 7mph
Humidity: 92%   Direction: 80°E
Pressure: 30.26"   Gusts: NA
Location:  38.51°N, 92.44°W
Report Text: KJEF 181231Z 08006KT 3SM -SN BR BKN038 OVC090 M01/M02 A3026 RMK AO2 P0000 T10111022
Loading
Personal Weather Stations






























Interactive Weather Map New forecast layout! Learn more

10-Day Weather Forecast

Advertisements
Track Severe Weather on mobile